createdAt,value
2022-10-16T00:01:21.527Z,3.20
2022-10-16T00:03:48.978Z,3.40
2022-10-16T00:06:17.271Z,3.00
2022-10-16T00:08:44.212Z,3.10
2022-10-16T00:11:14.658Z,3.33
2022-10-16T00:13:43.199Z,3.57
2022-10-16T00:16:11.694Z,3.53
2022-10-16T00:18:38.938Z,3.53
2022-10-16T00:21:17.397Z,3.87
2022-10-16T00:23:44.407Z,3.60
2022-10-16T00:26:14.588Z,3.47
2022-10-16T00:28:41.475Z,3.70
2022-10-16T00:31:12.048Z,3.70
2022-10-16T00:33:40.032Z,3.70
2022-10-16T00:36:08.585Z,3.80
2022-10-16T00:38:35.161Z,3.67
2022-10-16T00:41:02.122Z,3.63
2022-10-16T00:43:50.112Z,3.40
2022-10-16T00:46:21.350Z,3.57
2022-10-16T00:49:10.946Z,3.37
2022-10-16T00:51:50.001Z,3.47
2022-10-16T00:54:27.154Z,3.67
2022-10-16T00:56:55.712Z,3.27
2022-10-16T00:59:31.043Z,3.60
2022-10-16T01:01:58.476Z,3.10
2022-10-16T01:04:26.935Z,3.20
2022-10-16T01:07:02.135Z,3.13
2022-10-16T01:09:44.062Z,4.00
2022-10-16T01:12:37.732Z,3.20
2022-10-16T01:15:29.670Z,3.20
2022-10-16T01:18:27.128Z,3.40
2022-10-16T01:21:26.399Z,3.40
2022-10-16T01:24:20.806Z,3.53
2022-10-16T01:27:18.346Z,4.10
2022-10-16T01:30:03.202Z,4.57
2022-10-16T01:32:38.227Z,5.30
2022-10-16T01:35:14.358Z,6.20
2022-10-16T01:37:47.870Z,5.70
2022-10-16T01:40:17.815Z,5.30
2022-10-16T01:42:50.766Z,5.50
2022-10-16T01:45:21.206Z,6.00
2022-10-16T01:47:50.644Z,5.53
2022-10-16T01:50:20.763Z,5.17
2022-10-16T01:52:51.777Z,5.23
2022-10-16T01:55:27.471Z,6.13
2022-10-16T01:57:55.965Z,6.77
2022-10-16T02:00:24.508Z,7.37
2022-10-16T02:02:54.326Z,7.73
2022-10-16T02:05:27.490Z,6.93
2022-10-16T02:07:53.991Z,6.50
2022-10-16T02:10:21.135Z,7.20
2022-10-16T02:13:02.155Z,6.37
2022-10-16T02:15:28.730Z,6.10
2022-10-16T02:17:55.244Z,5.00
2022-10-16T02:20:28.216Z,4.80
2022-10-16T02:22:56.921Z,4.27
2022-10-16T02:25:29.686Z,3.53
2022-10-16T02:28:02.402Z,3.30
2022-10-16T02:30:35.057Z,3.13
2022-10-16T02:33:05.012Z,2.93
2022-10-16T02:35:32.608Z,2.40
2022-10-16T02:37:59.949Z,2.23
2022-10-16T02:40:27.589Z,2.37
2022-10-16T02:42:55.471Z,1.93
2022-10-16T02:45:23.116Z,1.90
2022-10-16T02:47:50.183Z,1.80
2022-10-16T02:50:17.397Z,1.90
2022-10-16T02:52:43.897Z,2.23
2022-10-16T02:55:10.491Z,1.70
2022-10-16T02:57:38.209Z,1.90
2022-10-16T03:00:06.107Z,2.10
2022-10-16T03:02:32.559Z,1.97
2022-10-16T03:04:59.641Z,1.70
2022-10-16T03:07:26.695Z,1.93
2022-10-16T03:09:53.405Z,1.93
2022-10-16T03:12:19.869Z,1.93
2022-10-16T03:14:46.435Z,1.63
2022-10-16T03:17:14.083Z,1.80
2022-10-16T03:19:40.702Z,1.77
2022-10-16T03:22:07.136Z,1.60
2022-10-16T03:24:33.660Z,1.80
2022-10-16T03:27:00.150Z,1.70
2022-10-16T03:29:26.932Z,1.80
2022-10-16T03:31:53.457Z,1.60
2022-10-16T03:34:20.033Z,1.70
2022-10-16T03:36:46.487Z,1.60
2022-10-16T03:39:13.573Z,1.57
2022-10-16T03:41:40.384Z,1.73
2022-10-16T03:44:06.970Z,1.90
2022-10-16T03:46:33.610Z,1.57
2022-10-16T03:49:00.083Z,1.83
2022-10-16T03:51:26.568Z,1.60
2022-10-16T03:53:53.470Z,1.43
2022-10-16T03:56:19.967Z,1.70
2022-10-16T03:58:46.515Z,1.30
2022-10-16T04:01:13.355Z,1.60
2022-10-16T04:03:39.836Z,1.47
2022-10-16T04:06:06.366Z,1.17
2022-10-16T04:08:35.892Z,1.40
2022-10-16T04:11:02.579Z,1.40
2022-10-16T04:13:29.158Z,1.50
2022-10-16T04:15:55.893Z,1.37
2022-10-16T04:18:22.378Z,1.40
2022-10-16T04:20:48.818Z,1.50
2022-10-16T04:23:15.290Z,1.50
2022-10-16T04:25:41.756Z,1.40
2022-10-16T04:28:08.973Z,1.23
2022-10-16T04:30:35.390Z,1.40
2022-10-16T04:35:48.590Z,1.50
2022-10-16T04:38:15.097Z,1.40
2022-10-16T04:40:43.282Z,1.70
2022-10-16T04:43:10.479Z,1.50
2022-10-16T04:45:37.010Z,1.60
2022-10-16T04:48:03.692Z,1.37
2022-10-16T04:50:30.132Z,1.70
2022-10-16T04:52:56.645Z,1.50
2022-10-16T04:55:23.297Z,1.50
2022-10-16T04:57:49.859Z,1.50
2022-10-16T05:00:16.486Z,1.67
2022-10-16T05:02:42.978Z,1.50
2022-10-16T05:05:09.682Z,1.23
2022-10-16T05:07:36.146Z,1.43
2022-10-16T05:10:02.702Z,1.33
2022-10-16T05:12:29.178Z,1.40
2022-10-16T05:14:59.600Z,1.40
2022-10-16T05:17:27.290Z,1.30
2022-10-16T05:19:54.163Z,1.60
2022-10-16T05:22:20.724Z,1.43
2022-10-16T05:24:47.152Z,1.57
2022-10-16T05:27:20.126Z,1.20
2022-10-16T05:29:48.121Z,1.30
2022-10-16T05:32:19.004Z,1.30
2022-10-16T05:34:46.181Z,1.30
2022-10-16T05:37:13.394Z,1.57
2022-10-16T05:39:40.183Z,1.50
2022-10-16T05:42:07.365Z,1.40
2022-10-16T05:47:22.139Z,1.40
2022-10-16T05:49:48.679Z,1.30
2022-10-16T05:52:15.128Z,1.23
2022-10-16T05:54:41.737Z,1.20
2022-10-16T05:57:08.221Z,1.17
2022-10-16T05:59:34.719Z,1.60
2022-10-16T06:02:01.638Z,1.50
2022-10-16T06:04:28.094Z,1.57
2022-10-16T06:06:54.759Z,1.67
2022-10-16T06:09:21.217Z,1.53
2022-10-16T06:11:47.782Z,1.10
2022-10-16T06:14:14.504Z,1.50
2022-10-16T06:16:40.974Z,1.40
2022-10-16T06:19:09.166Z,1.70
2022-10-16T06:21:36.137Z,1.50
2022-10-16T06:24:03.185Z,1.80
2022-10-16T06:26:31.392Z,1.37
2022-10-16T06:28:59.910Z,2.10
2022-10-16T06:31:30.208Z,2.13
2022-10-16T06:33:57.232Z,1.80
2022-10-16T06:36:25.192Z,1.70
2022-10-16T06:38:51.836Z,1.70
2022-10-16T06:41:21.144Z,1.70
2022-10-16T06:43:48.241Z,1.60
2022-10-16T06:46:17.294Z,1.40
2022-10-16T06:48:43.913Z,1.30
2022-10-16T06:51:13.061Z,1.50
2022-10-16T06:54:01.075Z,1.90
2022-10-16T06:56:31.045Z,1.80
2022-10-16T06:58:57.560Z,1.97
2022-10-16T07:01:25.358Z,1.70
2022-10-16T07:03:52.135Z,1.87
2022-10-16T07:06:20.452Z,1.93
2022-10-16T07:08:48.326Z,1.97
2022-10-16T07:11:17.948Z,1.83
2022-10-16T07:13:50.744Z,1.77
2022-10-16T07:16:22.825Z,1.87
2022-10-16T07:18:50.248Z,1.67
2022-10-16T07:21:21.695Z,2.20
2022-10-16T07:23:56.026Z,2.00
2022-10-16T07:26:24.136Z,1.80
2022-10-16T07:28:51.269Z,2.20
2022-10-16T07:31:20.276Z,1.70
2022-10-16T07:33:49.152Z,2.20
2022-10-16T07:36:17.373Z,2.00
2022-10-16T07:38:44.061Z,1.93
2022-10-16T07:41:14.294Z,2.20
2022-10-16T07:43:41.320Z,2.10
2022-10-16T07:46:07.985Z,2.07
2022-10-16T07:48:35.477Z,2.03
2022-10-16T07:51:04.960Z,1.90
2022-10-16T07:53:32.083Z,2.00
2022-10-16T07:56:00.609Z,1.77
2022-10-16T07:58:28.888Z,1.90
2022-10-16T08:00:56.234Z,1.73
2022-10-16T08:03:23.027Z,2.10
2022-10-16T08:05:49.771Z,2.17
2022-10-16T08:08:20.206Z,2.00
2022-10-16T08:10:46.773Z,2.30
2022-10-16T08:13:16.259Z,2.10
2022-10-16T08:15:44.102Z,2.60
2022-10-16T08:18:12.116Z,2.60
2022-10-16T08:20:39.537Z,2.43
2022-10-16T08:23:06.502Z,2.23
2022-10-16T08:25:36.352Z,2.03
2022-10-16T08:28:08.710Z,2.57
2022-10-16T08:30:35.537Z,2.00
2022-10-16T08:33:02.677Z,2.53
2022-10-16T08:35:29.475Z,2.53
2022-10-16T08:37:56.100Z,2.90
2022-10-16T08:40:28.643Z,2.60
2022-10-16T08:43:06.046Z,2.40
2022-10-16T08:45:51.476Z,1.80
2022-10-16T08:48:20.857Z,1.60
2022-10-16T08:50:50.584Z,1.70
2022-10-16T08:53:32.189Z,1.60
2022-10-16T08:55:59.556Z,1.30
2022-10-16T08:58:31.566Z,1.50
2022-10-16T09:01:05.816Z,1.70
2022-10-16T09:03:38.449Z,1.40
2022-10-16T09:06:12.366Z,1.40
2022-10-16T09:09:00.127Z,1.67
2022-10-16T09:11:33.555Z,1.50
2022-10-16T09:14:15.839Z,1.27
2022-10-16T09:16:58.690Z,1.60
2022-10-16T09:19:32.547Z,1.57
2022-10-16T09:22:01.705Z,1.40
2022-10-16T09:24:29.397Z,1.07
2022-10-16T09:26:56.081Z,1.60
2022-10-16T09:29:24.546Z,1.50
2022-10-16T09:31:52.219Z,1.20
2022-10-16T09:34:33.326Z,1.23
2022-10-16T09:37:06.632Z,1.50
2022-10-16T09:39:46.218Z,1.60
2022-10-16T09:42:17.454Z,1.20
2022-10-16T09:44:51.787Z,1.40
2022-10-16T09:47:21.425Z,1.20
2022-10-16T09:50:03.203Z,1.10
2022-10-16T09:52:30.727Z,1.00
2022-10-16T09:55:02.506Z,1.20
2022-10-16T09:57:29.995Z,1.07
2022-10-16T09:59:58.985Z,1.10
2022-10-16T10:02:36.015Z,1.10
2022-10-16T10:05:05.466Z,1.20
2022-10-16T10:07:35.419Z,1.70
2022-10-16T10:10:05.074Z,1.13
2022-10-16T10:12:34.846Z,1.40
2022-10-16T10:15:11.528Z,1.20
2022-10-16T10:17:48.442Z,1.27
2022-10-16T10:20:35.753Z,1.13
2022-10-16T10:23:21.263Z,1.27
2022-10-16T10:26:03.655Z,1.10
2022-10-16T10:28:49.104Z,1.30
2022-10-16T10:31:21.555Z,1.07
2022-10-16T10:33:50.829Z,0.97
2022-10-16T10:36:51.324Z,1.20
2022-10-16T10:39:23.577Z,1.30
2022-10-16T10:41:53.025Z,1.17
2022-10-16T10:44:32.069Z,1.17
2022-10-16T10:47:05.679Z,1.23
2022-10-16T10:50:02.871Z,1.30
2022-10-16T10:52:53.455Z,1.33
2022-10-16T10:55:41.786Z,1.30
2022-10-16T10:58:36.672Z,1.50
2022-10-16T11:01:16.823Z,1.67
2022-10-16T11:03:58.956Z,1.10
2022-10-16T11:06:45.663Z,1.30
2022-10-16T11:09:18.942Z,1.47
2022-10-16T11:11:50.989Z,1.30
2022-10-16T11:14:22.249Z,1.10
2022-10-16T11:16:55.317Z,1.40
2022-10-16T11:19:52.735Z,1.30
2022-10-16T11:22:30.112Z,1.10
2022-10-16T11:25:08.966Z,1.00
2022-10-16T11:27:41.156Z,1.43
2022-10-16T11:31:42.513Z,1.30
2022-10-16T11:34:35.700Z,1.20
2022-10-16T11:37:13.655Z,1.57
2022-10-16T11:39:41.560Z,1.30
2022-10-16T11:42:16.848Z,1.30
2022-10-16T11:45:09.005Z,1.57
2022-10-16T11:50:41.246Z,1.17
2022-10-16T11:53:23.462Z,1.33
2022-10-16T11:55:50.041Z,1.50
2022-10-16T11:58:33.493Z,1.10
2022-10-16T12:01:10.280Z,1.77
2022-10-16T12:03:50.777Z,1.50
2022-10-16T12:06:30.417Z,1.33
2022-10-16T12:09:00.382Z,1.50
2022-10-16T12:11:29.863Z,1.80
2022-10-16T12:14:21.747Z,1.30
2022-10-16T12:17:20.319Z,1.43
2022-10-16T12:20:01.651Z,1.37
2022-10-16T12:22:32.066Z,1.50
2022-10-16T12:24:59.303Z,1.60
2022-10-16T12:27:31.603Z,1.60
2022-10-16T12:30:03.515Z,1.60
2022-10-16T12:32:48.458Z,1.20
2022-10-16T12:35:28.203Z,1.53
2022-10-16T12:37:55.644Z,1.80
2022-10-16T12:40:28.343Z,1.93
2022-10-16T12:42:54.944Z,1.60
2022-10-16T12:45:29.435Z,1.40
2022-10-16T12:47:57.537Z,1.23
2022-10-16T12:50:38.976Z,1.20
2022-10-16T12:53:23.293Z,1.52
2022-10-16T12:56:28.683Z,1.30
2022-10-16T12:59:15.736Z,1.10
2022-10-16T13:01:56.338Z,1.27
2022-10-16T13:04:48.227Z,1.47
2022-10-16T13:07:42.596Z,1.47
2022-10-16T13:10:34.151Z,1.37
2022-10-16T13:13:38.450Z,1.33
2022-10-16T13:16:39.652Z,1.20
2022-10-16T13:19:25.855Z,1.20
2022-10-16T13:22:28.706Z,1.50
2022-10-16T13:25:40.358Z,1.30
2022-10-16T13:28:09.851Z,1.43
2022-10-16T13:30:45.683Z,1.57
2022-10-16T13:33:21.025Z,1.73
2022-10-16T13:35:53.369Z,1.93
2022-10-16T13:38:25.302Z,1.50
2022-10-16T13:41:01.501Z,1.30
2022-10-16T13:43:40.938Z,1.40
2022-10-16T13:46:16.832Z,1.50
2022-10-16T13:48:43.877Z,1.53
2022-10-16T13:51:14.830Z,1.20
2022-10-16T13:53:42.211Z,1.20
2022-10-16T13:56:13.573Z,1.00
2022-10-16T13:58:40.141Z,1.00
2022-10-16T14:01:18.441Z,1.20
2022-10-16T14:03:46.724Z,1.27
2022-10-16T14:06:17.264Z,2.13
2022-10-16T14:08:47.244Z,2.00
2022-10-16T14:11:13.970Z,1.37
2022-10-16T14:13:48.026Z,1.53
2022-10-16T14:16:33.843Z,1.40
2022-10-16T14:19:06.878Z,1.60
2022-10-16T14:21:35.426Z,1.27
2022-10-16T14:24:13.101Z,1.50
2022-10-16T14:26:50.438Z,1.10
2022-10-16T14:29:21.926Z,1.90
2022-10-16T14:31:57.548Z,2.10
2022-10-16T14:34:29.074Z,2.30
2022-10-16T14:36:56.779Z,2.30
2022-10-16T14:39:27.286Z,2.40
2022-10-16T14:41:58.231Z,3.40
2022-10-16T14:44:33.643Z,3.20
2022-10-16T14:47:10.218Z,2.87
2022-10-16T14:49:37.167Z,3.50
2022-10-16T14:52:09.648Z,3.20
2022-10-16T14:54:36.255Z,2.43
2022-10-16T14:57:03.009Z,2.20
2022-10-16T14:59:42.261Z,2.33
2022-10-16T15:02:21.805Z,2.63
2022-10-16T15:04:49.732Z,2.70
2022-10-16T15:07:16.453Z,2.47
2022-10-16T15:09:48.023Z,2.37
2022-10-16T15:12:17.160Z,2.43
2022-10-16T15:14:44.085Z,2.00
2022-10-16T15:17:11.963Z,1.50
2022-10-16T15:19:38.785Z,2.00
2022-10-16T15:22:05.286Z,1.73
2022-10-16T15:24:32.242Z,1.80
2022-10-16T15:26:58.809Z,1.80
2022-10-16T15:29:25.299Z,1.60
2022-10-16T15:31:51.794Z,1.90
2022-10-16T15:34:20.883Z,1.83
2022-10-16T15:36:47.827Z,1.80
2022-10-16T15:39:20.346Z,1.40
2022-10-16T15:41:52.346Z,1.50
2022-10-16T15:44:23.908Z,1.67
2022-10-16T15:46:50.632Z,1.47
2022-10-16T15:49:17.205Z,1.43
2022-10-16T15:51:43.765Z,1.47
2022-10-16T15:54:10.434Z,2.10
2022-10-16T15:56:38.450Z,1.90
2022-10-16T15:59:05.909Z,1.90
2022-10-16T16:01:37.001Z,1.73
2022-10-16T16:04:10.803Z,1.73
2022-10-16T16:06:46.893Z,1.90
2022-10-16T16:09:15.276Z,1.90
2022-10-16T16:11:42.156Z,1.93
2022-10-16T16:14:14.249Z,2.10
2022-10-16T16:16:40.790Z,1.57
2022-10-16T16:19:11.738Z,1.80
2022-10-16T16:21:39.710Z,1.83
2022-10-16T16:24:09.665Z,1.30
2022-10-16T16:26:38.623Z,1.83
2022-10-16T16:29:05.472Z,1.83
2022-10-16T16:31:33.461Z,2.03
2022-10-16T16:34:00.181Z,1.80
2022-10-16T16:36:26.795Z,1.87
2022-10-16T16:38:53.502Z,2.30
2022-10-16T16:41:22.819Z,2.07
2022-10-16T16:43:49.964Z,1.90
2022-10-16T16:46:16.787Z,2.00
2022-10-16T16:48:43.517Z,2.00
2022-10-16T16:51:16.302Z,2.20
2022-10-16T16:53:44.510Z,1.70
2022-10-16T16:57:49.240Z,1.70
2022-10-16T17:02:51.964Z,1.73
2022-10-16T17:05:19.898Z,2.27
2022-10-16T17:07:46.398Z,2.23
2022-10-16T17:10:12.961Z,1.80
2022-10-16T17:12:39.558Z,2.10
2022-10-16T17:15:07.146Z,2.40
2022-10-16T17:17:33.650Z,2.30
2022-10-16T17:20:00.165Z,2.33
2022-10-16T17:22:26.853Z,2.80
2022-10-16T17:24:54.824Z,2.47
2022-10-16T17:27:21.674Z,2.03
2022-10-16T17:29:52.326Z,2.53
2022-10-16T17:32:20.774Z,2.07
2022-10-16T17:34:47.941Z,2.87
2022-10-16T17:37:17.312Z,2.53
2022-10-16T17:39:44.965Z,2.53
2022-10-16T17:42:11.487Z,2.80
2022-10-16T17:44:38.099Z,2.20
2022-10-16T17:47:04.640Z,2.77
2022-10-16T17:49:31.512Z,3.03
2022-10-16T17:51:59.162Z,2.87
2022-10-16T17:54:25.701Z,2.73
2022-10-16T17:56:54.724Z,2.53
2022-10-16T17:59:23.229Z,2.60
2022-10-16T18:01:50.102Z,3.33
2022-10-16T18:04:17.360Z,3.13
2022-10-16T18:06:45.685Z,2.80
2022-10-16T18:09:15.123Z,2.80
2022-10-16T18:11:41.731Z,2.77
2022-10-16T18:14:08.234Z,2.83
2022-10-16T18:16:36.762Z,3.20
2022-10-16T18:19:03.713Z,3.40
2022-10-16T18:21:30.288Z,3.40
2022-10-16T18:23:59.391Z,3.20
2022-10-16T18:26:26.235Z,3.30
2022-10-16T18:28:54.675Z,2.90
2022-10-16T18:31:23.159Z,2.87
2022-10-16T18:33:51.281Z,2.53
2022-10-16T18:36:23.837Z,2.60
2022-10-16T18:38:51.080Z,2.80
2022-10-16T18:41:18.531Z,2.30
2022-10-16T18:43:45.076Z,2.40
2022-10-16T18:46:15.035Z,2.90
2022-10-16T18:48:42.373Z,2.30
2022-10-16T18:51:23.168Z,2.70
2022-10-16T18:53:53.123Z,2.40
2022-10-16T18:56:21.738Z,2.60
2022-10-16T18:58:49.256Z,2.33
2022-10-16T19:01:21.436Z,2.40
2022-10-16T19:03:55.405Z,2.37
2022-10-16T19:06:22.290Z,2.90
2022-10-16T19:08:48.805Z,2.80
2022-10-16T19:11:21.158Z,2.80
2022-10-16T19:13:48.573Z,3.17
2022-10-16T19:16:21.636Z,2.60
2022-10-16T19:18:51.014Z,2.30
2022-10-16T19:21:18.609Z,2.20
2022-10-16T19:23:47.006Z,2.27
2022-10-16T19:26:18.144Z,2.17
2022-10-16T19:28:46.327Z,2.30
2022-10-16T19:31:15.211Z,2.30
2022-10-16T19:33:42.365Z,2.10
2022-10-16T19:36:12.007Z,2.37
2022-10-16T19:38:39.718Z,2.47
2022-10-16T19:41:08.720Z,2.17
2022-10-16T19:43:35.249Z,2.60
2022-10-16T19:46:06.762Z,2.20
2022-10-16T19:48:33.921Z,2.40
2022-10-16T19:51:01.351Z,2.40
2022-10-16T19:53:28.749Z,2.27
2022-10-16T19:55:56.151Z,2.30
2022-10-16T19:58:23.924Z,2.23
2022-10-16T20:00:50.408Z,2.47
2022-10-16T20:03:17.726Z,2.43
2022-10-16T20:05:55.031Z,2.50
2022-10-16T20:08:21.941Z,2.50
2022-10-16T20:10:55.048Z,2.40
2022-10-16T20:13:22.724Z,2.17
2022-10-16T20:15:49.849Z,2.20
2022-10-16T20:18:17.058Z,2.30
2022-10-16T20:20:48.547Z,2.20
2022-10-16T20:23:15.507Z,2.20
2022-10-16T20:25:42.718Z,2.20
2022-10-16T20:28:12.266Z,2.30
2022-10-16T20:30:41.356Z,1.90
2022-10-16T20:33:08.694Z,2.20
2022-10-16T20:35:43.890Z,2.33
2022-10-16T20:38:11.237Z,2.37
2022-10-16T20:40:43.520Z,2.20
2022-10-16T20:43:16.193Z,2.30
2022-10-16T20:45:43.878Z,2.10
2022-10-16T20:48:13.796Z,2.90
2022-10-16T20:50:41.814Z,2.40
2022-10-16T20:53:09.286Z,2.47
2022-10-16T20:55:37.504Z,2.30
2022-10-16T20:58:05.701Z,2.20
2022-10-16T21:00:32.452Z,2.57
2022-10-16T21:02:59.081Z,2.57
2022-10-16T21:05:28.897Z,2.60
2022-10-16T21:07:55.858Z,2.40
2022-10-16T21:10:23.423Z,2.33
2022-10-16T21:12:56.101Z,2.50
2022-10-16T21:15:22.769Z,2.43
2022-10-16T21:17:49.444Z,2.23
2022-10-16T21:20:16.214Z,2.20
2022-10-16T21:22:42.739Z,2.77
2022-10-16T21:25:09.497Z,2.40
2022-10-16T21:27:40.347Z,2.20
2022-10-16T21:30:09.709Z,2.47
2022-10-16T21:32:37.551Z,2.07
2022-10-16T21:35:04.848Z,2.40
2022-10-16T21:37:34.107Z,2.60
2022-10-16T21:40:00.926Z,2.30
2022-10-16T21:42:28.066Z,2.60
2022-10-16T21:44:54.826Z,2.10
2022-10-16T21:47:21.395Z,2.50
2022-10-16T21:49:47.886Z,2.40
2022-10-16T21:52:14.530Z,2.10
2022-10-16T21:54:40.981Z,2.70
2022-10-16T21:57:07.514Z,2.60
2022-10-16T21:59:34.186Z,2.63
2022-10-16T22:02:03.102Z,2.87
2022-10-16T22:04:29.745Z,2.63
2022-10-16T22:06:56.275Z,2.47
2022-10-16T22:09:22.780Z,3.07
2022-10-16T22:11:50.557Z,2.70
2022-10-16T22:14:19.833Z,3.20
2022-10-16T22:16:47.256Z,3.00
2022-10-16T22:19:16.025Z,3.10
2022-10-16T22:21:43.769Z,2.93
2022-10-16T22:24:10.602Z,3.03
2022-10-16T22:26:38.107Z,3.00
2022-10-16T22:29:05.912Z,3.88
2022-10-16T22:31:33.274Z,3.57
2022-10-16T22:34:04.009Z,3.20
2022-10-16T22:36:30.764Z,3.60
2022-10-16T22:38:58.159Z,3.40
2022-10-16T22:41:24.975Z,3.73
2022-10-16T22:43:51.956Z,3.43
2022-10-16T22:46:21.052Z,3.63
2022-10-16T22:48:47.945Z,3.40
2022-10-16T22:51:16.964Z,3.40
2022-10-16T22:53:44.236Z,3.77
2022-10-16T22:56:11.198Z,3.70
2022-10-16T22:58:38.257Z,3.30
2022-10-16T23:01:22.317Z,3.30
2022-10-16T23:03:48.833Z,4.30
2022-10-16T23:06:15.577Z,3.40
2022-10-16T23:08:42.186Z,3.30
2022-10-16T23:11:11.505Z,3.53
2022-10-16T23:13:40.125Z,3.63
2022-10-16T23:16:07.671Z,4.10
2022-10-16T23:18:34.718Z,4.10
2022-10-16T23:21:06.015Z,3.70
2022-10-16T23:23:34.054Z,3.90
2022-10-16T23:26:00.632Z,4.10
2022-10-16T23:28:27.194Z,3.83
2022-10-16T23:30:53.834Z,4.10
2022-10-16T23:33:20.367Z,3.93
2022-10-16T23:35:47.244Z,4.27
2022-10-16T23:38:13.740Z,4.30
2022-10-16T23:40:40.485Z,4.47
2022-10-16T23:43:07.033Z,3.97
2022-10-16T23:45:33.566Z,4.27
2022-10-16T23:48:00.467Z,4.60
2022-10-16T23:50:28.783Z,4.43
2022-10-16T23:52:55.296Z,4.50
2022-10-16T23:55:21.908Z,4.23
2022-10-16T23:57:48.444Z,4.50
